Home > Products > Valid Products > TAF

000
FTUS45 KGJT 182328
TAFGJT
TAF
KGJT 182328Z 1900/1924 28012G22KT P6SM SCT120 BKN250
     FM190200 03005KT P6SM SCT100 BKN150
     FM190700 15010KT P6SM OVC120
     FM191300 12008KT P6SM VCSH OVC050
      TEMPO 1913/1916 -RA
     FM191800 30007KT P6SM VCSH BKN050 BKN100=



000
FTUS45 KGJT 182006 AAA
TAFGJT
TAF AMD
KGJT 182006Z 1820/1918 29012G22KT P6SM SCT120 BKN250
     FM190200 33005KT P6SM SCT100 BKN150
     FM190700 15010KT P6SM OVC120
     FM191300 13008KT P6SM -RA OVC050=



000
FTUS45 KGJT 181740
TAFGJT
TAF
KGJT 181740Z 1818/1918 14010KT P6SM SCT250
     FM181900 20012G22KT P6SM SCT120 BKN250
     FM190200 33005KT P6SM SCT100 BKN150
     FM190700 15010KT P6SM OVC120
     FM191300 13008KT P6SM -RA OVC050=



000
FTUS45 KGJT 181120
TAFGJT
TAF
KGJT 181120Z 1812/1912 11012KT P6SM SCT250
     FM181900 20012G22KT P6SM SCT120 BKN250
     FM190200 33005KT P6SM SCT100 BKN150
     FM190700 15010KT P6SM OVC120=



000
FTUS45 KGJT 180528
TAFGJT
TAF
KGJT 180528Z 1806/1906 11012KT P6SM SCT250
     FM181900 20012G22KT P6SM SCT120 BKN250
     FM190200 33005KT P6SM SCT100 BKN150=



000
FTUS45 KGJT 172332
TAFGJT
TAF
KGJT 172332Z 1800/1824 30005KT P6SM SCT250
     FM180200 07004KT P6SM SCT250
     FM180700 12012KT P6SM SKC
     FM181900 20012G22KT P6SM FEW070 SCT120=



000
FTUS45 KGJT 171733
TAFGJT
TAF
KGJT 171733Z 1718/1818 VRB03KT P6SM FEW250
     FM172000 30005KT P6SM SCT250
     FM180200 07004KT P6SM SCT250
     FM180700 12010KT P6SM SKC
     FM181600 VRB03KT P6SM FEW070 SCT120=



000
FTUS45 KGJT 171120
TAFGJT
TAF
KGJT 171120Z 1712/1812 12008KT P6SM FEW250
     FM171700 VRB03KT P6SM FEW250
     FM172000 30005KT P6SM SCT250
     FM180200 07004KT P6SM SCT250
     FM180700 12010KT P6SM SKC=



000
FTUS45 KGJT 170524
TAFGJT
TAF
KGJT 170524Z 1706/1806 12008KT P6SM SKC
     FM171700 VRB03KT P6SM FEW250
     FM172000 30005KT P6SM SCT250
     FM180200 07004KT P6SM SCT250=



000
FTUS45 KGJT 162340
TAFGJT
TAF
KGJT 162340Z 1700/1724 32006KT P6SM SCT100 BKN150
     FM170100 03006KT P6SM SCT100
     FM170700 12008KT P6SM SKC
     FM171700 VRB03KT P6SM SKC
     FM172000 30005KT P6SM SCT250=



000
FTUS45 KGJT 161736
TAFGJT
TAF
KGJT 161736Z 1618/1718 VRB04KT P6SM BKN150
     FM162000 30008KT P6SM SCT060 BKN100
     FM170100 03006KT P6SM SCT100
     FM170700 12008KT P6SM SKC
     FM171700 VRB03KT P6SM SKC=



000
FTUS45 KGJT 161726 AAC
TAFGJT
TAF AMD
KGJT 161726Z 1617/1712 VRB04KT P6SM BKN150
     FM162000 30008KT P6SM SCT060 BKN100
     FM170100 03006KT P6SM SCT100
     FM170700 12008KT P6SM SKC
     FM171100 VRB03KT P6SM SKC=



000
FTUS45 KGJT 161120
TAFGJT
TAF
KGJT 161120Z 1612/1712 VRB04KT P6SM BKN150
     FM161800 30008KT P6SM SCT060 BKN100
     FM170100 03006KT P6SM SCT100
     FM170700 17008KT P6SM SKC=



000
FTUS45 KGJT 160526
TAFGJT
TAF
KGJT 160526Z 1606/1706 31005KT P6SM FEW100 BKN200
     FM161000 32006KT P6SM BKN100
     FM161800 30008KT P6SM SCT060 BKN100
     FM170100 03006KT P6SM SCT100=



000
FTUS45 KGJT 152341
TAFGJT
TAF
KGJT 152341Z 1600/1624 32006KT P6SM BKN250
     FM160200 07005KT P6SM BKN200
     FM160700 22007KT P6SM FEW150 BKN200
     FM161400 17008KT P6SM SCT060 BKN100
     FM161800 30008KT P6SM SCT060 BKN100=



    US Dept of Commerce
    National Oceanic and Atmospheric Administration
    National Weather Service
    1325 East West Highway
    Silver Spring, MD 20910
    Page Author: NWS Internet Services Team
Disclaimer
Information Quality
Credits
Glossary
Privacy Policy
Freedom of Information Act (FOIA)
About Us
Career Opportunities